createdAt,value
2019-02-18T00:01:31.503Z,57.04
2019-02-18T00:04:01.123Z,56.92
2019-02-18T00:06:34.005Z,56.92
2019-02-18T00:09:04.945Z,56.92
2019-02-18T00:11:35.253Z,56.83
2019-02-18T00:14:04.834Z,56.83
2019-02-18T00:16:34.488Z,57.46
2019-02-18T00:19:04.523Z,57.70
2019-02-18T00:21:34.423Z,57.71
2019-02-18T00:24:05.983Z,57.71
2019-02-18T00:26:35.740Z,58.12
2019-02-18T00:29:07.793Z,58.06
2019-02-18T00:31:37.554Z,58.06
2019-02-18T00:34:07.352Z,57.81
2019-02-18T00:36:37.467Z,58.59
2019-02-18T00:39:07.212Z,57.89
2019-02-18T00:41:37.125Z,57.89
2019-02-18T00:44:07.438Z,58.54
2019-02-18T00:46:37.159Z,58.26
2019-02-18T00:49:06.932Z,58.26
2019-02-18T00:51:40.044Z,58.40
2019-02-18T00:54:09.770Z,57.45
2019-02-18T00:56:39.456Z,57.91
2019-02-18T00:59:09.150Z,57.91
2019-02-18T01:01:38.802Z,57.53
2019-02-18T01:04:08.915Z,57.53
2019-02-18T01:06:38.577Z,57.35
2019-02-18T01:09:08.896Z,57.36
2019-02-18T01:11:38.804Z,57.36
2019-02-18T01:14:08.617Z,57.46
2019-02-18T01:16:38.499Z,57.66
2019-02-18T01:19:08.261Z,57.74
2019-02-18T01:21:37.859Z,57.44
2019-02-18T01:24:07.613Z,57.81
2019-02-18T01:26:40.225Z,57.81
2019-02-18T01:29:11.321Z,57.65
2019-02-18T01:31:44.196Z,57.73
2019-02-18T01:34:13.918Z,57.96
2019-02-18T01:36:44.126Z,58.49
2019-02-18T01:39:14.065Z,58.13
2019-02-18T01:41:43.932Z,58.05
2019-02-18T01:44:13.891Z,58.75
2019-02-18T01:46:44.028Z,57.77
2019-02-18T01:49:14.325Z,58.19
2019-02-18T01:51:44.064Z,58.19
2019-02-18T01:54:13.784Z,57.92
2019-02-18T01:56:43.610Z,57.63
2019-02-18T01:59:13.376Z,57.63
2019-02-18T02:01:44.698Z,58.31
2019-02-18T02:04:14.377Z,57.93
2019-02-18T02:06:45.800Z,58.13
2019-02-18T02:09:16.601Z,57.85
2019-02-18T02:11:46.351Z,57.85
2019-02-18T02:14:15.979Z,58.46
2019-02-18T02:16:45.645Z,58.36
2019-02-18T02:19:15.415Z,58.36
2019-02-18T02:21:45.083Z,58.59
2019-02-18T02:24:15.146Z,58.23
2019-02-18T02:26:46.137Z,58.20
2019-02-18T02:29:16.150Z,58.09
2019-02-18T02:31:46.055Z,58.09
2019-02-18T02:34:16.254Z,58.39
2019-02-18T02:36:46.094Z,58.39
2019-02-18T02:39:15.856Z,58.49
2019-02-18T02:41:45.599Z,58.02
2019-02-18T02:44:15.153Z,58.67
2019-02-18T02:46:45.595Z,58.13
2019-02-18T02:49:15.364Z,58.13
2019-02-18T02:51:44.945Z,57.91
2019-02-18T02:54:14.960Z,58.03
2019-02-18T02:56:44.628Z,59.15
2019-02-18T02:59:15.072Z,58.46
2019-02-18T03:01:44.965Z,58.46
2019-02-18T03:04:14.643Z,58.41
2019-02-18T03:06:44.311Z,59.00
2019-02-18T03:09:14.267Z,59.06
2019-02-18T03:11:44.176Z,58.62
2019-02-18T03:14:13.976Z,59.86
2019-02-18T03:16:43.664Z,59.71
2019-02-18T03:19:13.301Z,60.15
2019-02-18T03:21:43.058Z,59.85
2019-02-18T03:24:16.621Z,59.85
2019-02-18T03:26:46.312Z,60.24
2019-02-18T03:30:13.386Z,60.24
2019-02-18T03:32:48.793Z,60.07
2019-02-18T03:35:18.375Z,60.96
2019-02-18T03:37:48.567Z,60.96
2019-02-18T03:40:18.344Z,61.31
2019-02-18T03:42:48.247Z,60.24
2019-02-18T03:45:18.482Z,60.35
2019-02-18T03:47:48.361Z,60.02
2019-02-18T03:50:18.084Z,60.02
2019-02-18T03:52:47.938Z,60.02
2019-02-18T03:55:19.092Z,58.61
2019-02-18T03:57:48.842Z,59.42
2019-02-18T04:00:19.531Z,60.20
2019-02-18T04:02:49.416Z,60.20
2019-02-18T04:05:23.097Z,59.92
2019-02-18T04:07:52.751Z,59.11
2019-02-18T04:10:22.343Z,59.63
2019-02-18T04:12:52.156Z,59.36
2019-02-18T04:15:21.900Z,59.11
2019-02-18T04:17:51.560Z,59.11
2019-02-18T04:20:21.262Z,59.73
2019-02-18T04:22:51.334Z,59.86
2019-02-18T04:25:23.080Z,60.31
2019-02-18T04:27:53.028Z,60.31
2019-02-18T04:30:22.589Z,59.44
2019-02-18T04:32:52.252Z,59.36
2019-02-18T04:35:21.997Z,59.93
2019-02-18T04:37:51.763Z,58.83
2019-02-18T04:40:21.368Z,58.83
2019-02-18T04:42:51.145Z,59.49
2019-02-18T04:45:21.139Z,59.49
2019-02-18T04:47:51.041Z,58.80
2019-02-18T04:50:21.065Z,58.86
2019-02-18T04:52:51.147Z,58.86
2019-02-18T04:55:21.757Z,59.12
2019-02-18T04:57:51.474Z,59.13
2019-02-18T05:00:24.327Z,59.13
2019-02-18T05:02:54.279Z,58.56
2019-02-18T05:05:25.305Z,58.31
2019-02-18T05:07:55.717Z,58.09
2019-02-18T05:10:25.391Z,58.28
2019-02-18T05:12:55.283Z,57.16
2019-02-18T05:15:25.049Z,57.15
2019-02-18T05:17:54.749Z,57.15
2019-02-18T05:20:24.430Z,57.75
2019-02-18T05:22:54.520Z,58.15
2019-02-18T05:25:26.574Z,57.48
2019-02-18T05:27:56.822Z,57.37
2019-02-18T05:30:34.155Z,57.37
2019-02-18T05:33:03.800Z,56.96
2019-02-18T05:35:33.635Z,57.23
2019-02-18T05:38:03.186Z,56.81
2019-02-18T05:40:32.935Z,56.81
2019-02-18T05:43:02.641Z,57.91
2019-02-18T05:45:32.888Z,57.91
2019-02-18T05:48:02.642Z,57.38
2019-02-18T05:50:32.514Z,57.21
2019-02-18T05:53:02.165Z,57.48
2019-02-18T05:55:32.835Z,58.15
2019-02-18T05:58:02.618Z,58.36
2019-02-18T06:00:34.837Z,57.71
2019-02-18T06:03:04.937Z,57.71
2019-02-18T06:05:34.659Z,59.00
2019-02-18T06:08:04.461Z,59.00
2019-02-18T06:10:34.153Z,58.08
2019-02-18T06:13:03.830Z,58.08
2019-02-18T06:15:41.407Z,58.60
2019-02-18T06:18:18.822Z,58.09
2019-02-18T06:20:48.610Z,58.57
2019-02-18T06:23:18.086Z,58.27
2019-02-18T06:25:47.987Z,58.26
2019-02-18T06:28:17.521Z,58.26
2019-02-18T06:30:46.974Z,58.55
2019-02-18T06:33:16.867Z,57.61
2019-02-18T06:35:46.581Z,57.61
2019-02-18T06:38:17.941Z,58.00
2019-02-18T06:40:47.689Z,58.00
2019-02-18T06:43:17.252Z,58.50
2019-02-18T06:46:02.504Z,58.43
2019-02-18T06:48:34.123Z,58.43
2019-02-18T06:51:03.902Z,57.86
2019-02-18T06:53:35.778Z,58.16
2019-02-18T06:56:06.192Z,57.15
2019-02-18T06:59:03.846Z,57.15
2019-02-18T07:01:42.142Z,57.08
2019-02-18T07:04:33.398Z,56.85
2019-02-18T07:07:11.530Z,56.85
2019-02-18T07:09:51.681Z,56.98
2019-02-18T07:12:27.816Z,57.35
2019-02-18T07:14:59.042Z,56.90
2019-02-18T07:17:28.612Z,56.90
2019-02-18T07:19:58.378Z,57.62
2019-02-18T07:22:28.690Z,57.24
2019-02-18T07:24:59.629Z,57.24
2019-02-18T07:27:29.397Z,56.42
2019-02-18T07:29:59.608Z,57.05
2019-02-18T07:32:29.245Z,57.05
2019-02-18T07:35:00.708Z,56.65
2019-02-18T07:37:30.568Z,56.35
2019-02-18T07:40:02.484Z,56.64
2019-02-18T07:42:32.014Z,56.01
2019-02-18T07:45:02.747Z,55.80
2019-02-18T07:47:32.425Z,55.80
2019-02-18T07:50:02.261Z,55.24
2019-02-18T07:52:31.983Z,55.24
2019-02-18T07:55:01.852Z,54.97
2019-02-18T07:57:31.287Z,55.50
2019-02-18T08:00:01.277Z,54.86
2019-02-18T08:02:31.140Z,53.99
2019-02-18T08:05:02.246Z,53.99
2019-02-18T08:07:32.400Z,54.35
2019-02-18T08:10:11.532Z,53.64
2019-02-18T08:12:33.145Z,54.09
2019-02-18T08:15:02.742Z,54.09
2019-02-18T08:17:33.748Z,54.13
2019-02-18T08:20:04.141Z,53.32
2019-02-18T08:22:34.422Z,52.96
2019-02-18T08:25:04.098Z,53.23
2019-02-18T08:27:34.445Z,53.23
2019-02-18T08:30:04.300Z,52.70
2019-02-18T08:32:34.665Z,51.76
2019-02-18T08:35:04.339Z,51.60
2019-02-18T08:37:34.152Z,51.58
2019-02-18T08:40:04.134Z,51.58
2019-02-18T08:42:34.280Z,51.35
2019-02-18T08:45:04.066Z,51.64
2019-02-18T08:47:33.648Z,51.40
2019-02-18T08:50:03.766Z,51.40
2019-02-18T08:52:33.435Z,51.42
2019-02-18T08:55:03.491Z,51.42
2019-02-18T08:57:34.068Z,50.31
2019-02-18T09:00:03.593Z,49.83
2019-02-18T09:02:33.371Z,49.10
2019-02-18T09:05:03.212Z,49.46
2019-02-18T09:07:32.839Z,49.41
2019-02-18T09:10:02.401Z,48.74
2019-02-18T09:12:34.314Z,48.45
2019-02-18T09:15:04.035Z,47.89
2019-02-18T09:17:33.598Z,47.89
2019-02-18T09:20:06.252Z,48.09
2019-02-18T09:22:51.562Z,47.44
2019-02-18T09:25:28.481Z,48.34
2019-02-18T09:27:58.349Z,47.06
2019-02-18T09:30:30.777Z,47.20
2019-02-18T09:33:03.304Z,47.20
2019-02-18T09:35:34.099Z,46.68
2019-02-18T09:38:04.489Z,46.68
2019-02-18T09:40:44.185Z,47.22
2019-02-18T09:43:05.388Z,46.51
2019-02-18T09:45:35.088Z,46.18
2019-02-18T09:48:05.260Z,46.18
2019-02-18T09:50:37.281Z,45.70
2019-02-18T09:53:06.693Z,45.67
2019-02-18T09:55:37.973Z,45.41
2019-02-18T09:58:08.143Z,45.70
2019-02-18T10:00:38.865Z,45.18
2019-02-18T10:03:08.455Z,44.61
2019-02-18T10:05:40.570Z,44.61
2019-02-18T10:08:10.349Z,44.87
2019-02-18T10:10:39.945Z,44.87
2019-02-18T10:13:09.930Z,44.18
2019-02-18T10:15:41.000Z,44.15
2019-02-18T10:18:11.011Z,44.15
2019-02-18T10:20:41.289Z,44.37
2019-02-18T10:23:12.166Z,43.50
2019-02-18T10:25:41.992Z,43.32
2019-02-18T10:28:12.141Z,43.32
2019-02-18T10:30:41.996Z,43.35
2019-02-18T10:33:12.095Z,43.33
2019-02-18T10:35:41.684Z,41.82
2019-02-18T10:38:11.256Z,42.54
2019-02-18T10:40:42.279Z,42.44
2019-02-18T10:43:11.836Z,42.66
2019-02-18T10:45:41.338Z,42.66
2019-02-18T10:48:10.897Z,42.27
2019-02-18T10:50:42.724Z,41.35
2019-02-18T10:53:12.110Z,41.35
2019-02-18T10:55:41.659Z,41.48
2019-02-18T10:58:11.222Z,41.72
2019-02-18T11:00:40.802Z,41.72
2019-02-18T11:03:10.473Z,40.83
2019-02-18T11:05:40.759Z,40.83
2019-02-18T11:08:10.792Z,41.31
2019-02-18T11:10:40.355Z,41.31
2019-02-18T11:13:11.092Z,41.04
2019-02-18T11:15:41.036Z,41.04
2019-02-18T11:18:13.096Z,40.53
2019-02-18T11:20:42.770Z,40.63
2019-02-18T11:23:12.468Z,40.24
2019-02-18T11:25:42.325Z,39.72
2019-02-18T11:28:13.083Z,39.86
2019-02-18T11:30:42.668Z,40.14
2019-02-18T11:33:15.368Z,40.18
2019-02-18T11:35:45.265Z,40.18
2019-02-18T11:38:15.112Z,40.18
2019-02-18T11:40:45.226Z,39.46
2019-02-18T11:43:14.977Z,39.31
2019-02-18T11:45:44.558Z,39.31
2019-02-18T11:48:16.906Z,39.77
2019-02-18T11:50:46.482Z,39.77
2019-02-18T11:53:19.250Z,38.58
2019-02-18T11:55:49.137Z,38.58
2019-02-18T11:58:19.355Z,38.58
2019-02-18T12:00:49.195Z,38.44
2019-02-18T12:03:18.910Z,38.88
2019-02-18T12:05:48.788Z,38.88
2019-02-18T12:08:18.395Z,39.60
2019-02-18T12:10:48.528Z,39.60
2019-02-18T12:13:18.797Z,38.80
2019-02-18T12:15:55.167Z,39.30
2019-02-18T12:18:25.216Z,39.67
2019-02-18T12:20:56.025Z,39.39
2019-02-18T12:23:25.584Z,40.02
2019-02-18T12:25:58.154Z,39.08
2019-02-18T12:28:27.698Z,40.15
2019-02-18T12:31:00.089Z,40.15
2019-02-18T12:33:30.092Z,39.62
2019-02-18T12:36:00.132Z,40.46
2019-02-18T12:38:29.666Z,40.46
2019-02-18T12:41:00.603Z,39.35
2019-02-18T12:43:33.482Z,38.51
2019-02-18T12:46:03.267Z,38.51
2019-02-18T12:48:35.214Z,38.07
2019-02-18T12:51:07.178Z,38.07
2019-02-18T12:53:36.775Z,38.48
2019-02-18T12:56:07.237Z,39.03
2019-02-18T12:58:36.979Z,38.46
2019-02-18T13:01:06.840Z,37.64
2019-02-18T13:03:36.497Z,37.98
2019-02-18T13:06:06.379Z,37.98
2019-02-18T13:08:35.915Z,38.16
2019-02-18T13:11:06.383Z,37.67
2019-02-18T13:13:37.172Z,37.54
2019-02-18T13:16:06.863Z,37.60
2019-02-18T13:18:36.656Z,36.66
2019-02-18T13:21:06.485Z,36.45
2019-02-18T13:23:36.514Z,36.49
2019-02-18T13:26:10.503Z,36.83
2019-02-18T13:28:40.862Z,36.54
2019-02-18T13:31:10.862Z,36.35
2019-02-18T13:33:40.648Z,36.50
2019-02-18T13:36:15.091Z,36.19
2019-02-18T13:38:44.741Z,36.15
2019-02-18T13:41:14.313Z,35.52
2019-02-18T13:43:44.071Z,35.30
2019-02-18T13:46:13.815Z,35.30
2019-02-18T13:48:43.443Z,35.46
2019-02-18T13:51:12.974Z,34.52
2019-02-18T13:53:43.677Z,35.05
2019-02-18T13:56:16.036Z,35.24
2019-02-18T13:58:45.876Z,34.26
2019-02-18T14:01:16.762Z,34.64
2019-02-18T14:03:46.338Z,35.03
2019-02-18T14:06:16.133Z,35.03
2019-02-18T14:08:45.621Z,34.65
2019-02-18T14:11:15.496Z,35.14
2019-02-18T14:13:45.501Z,35.19
2019-02-18T14:16:18.058Z,35.56
2019-02-18T14:18:47.581Z,34.73
2019-02-18T14:21:20.222Z,34.73
2019-02-18T14:23:52.697Z,35.56
2019-02-18T14:26:22.585Z,35.48
2019-02-18T14:28:52.058Z,34.98
2019-02-18T14:31:22.082Z,34.65
2019-02-18T14:33:51.933Z,34.65
2019-02-18T14:36:21.755Z,35.25
2019-02-18T14:38:51.634Z,35.61
2019-02-18T14:41:21.831Z,35.96
2019-02-18T14:43:51.658Z,36.49
2019-02-18T14:46:24.287Z,37.38
2019-02-18T14:48:56.425Z,36.71
2019-02-18T14:51:25.999Z,37.47
2019-02-18T14:53:55.998Z,38.41
2019-02-18T14:56:25.780Z,38.41
2019-02-18T14:58:56.086Z,37.89
2019-02-18T15:01:25.722Z,37.84
2019-02-18T15:03:55.295Z,37.84
2019-02-18T15:06:25.480Z,36.33
2019-02-18T15:08:55.879Z,36.33
2019-02-18T15:11:27.793Z,34.91
2019-02-18T15:14:01.231Z,32.94
2019-02-18T15:16:31.299Z,32.42
2019-02-18T15:19:02.276Z,32.26
2019-02-18T15:21:34.981Z,32.70
2019-02-18T15:24:05.121Z,32.70
2019-02-18T15:26:34.596Z,33.41
2019-02-18T15:29:04.232Z,33.78
2019-02-18T15:31:33.780Z,34.18
2019-02-18T15:34:03.796Z,34.32
2019-02-18T15:36:33.745Z,35.35
2019-02-18T15:39:03.259Z,35.35
2019-02-18T15:41:32.816Z,34.81
2019-02-18T15:44:02.527Z,35.07
2019-02-18T15:46:32.302Z,35.07
2019-02-18T15:49:02.224Z,35.13
2019-02-18T15:51:32.032Z,35.13
2019-02-18T15:54:04.948Z,35.39
2019-02-18T15:56:35.141Z,35.90
2019-02-18T15:59:04.944Z,35.90
2019-02-18T16:01:34.540Z,36.64
2019-02-18T16:04:05.174Z,36.64
2019-02-18T16:06:35.010Z,36.79
2019-02-18T16:09:08.976Z,36.79
2019-02-18T16:11:38.910Z,36.83
2019-02-18T16:14:09.711Z,37.32
2019-02-18T16:16:41.079Z,37.91
2019-02-18T16:19:12.897Z,37.91
2019-02-18T16:21:42.461Z,38.38
2019-02-18T16:24:19.617Z,39.13
2019-02-18T16:26:46.183Z,39.33
2019-02-18T16:29:16.389Z,39.25
2019-02-18T16:31:48.589Z,39.59
2019-02-18T16:34:18.305Z,39.66
2019-02-18T16:36:49.750Z,39.66
2019-02-18T16:39:19.666Z,40.45
2019-02-18T16:41:49.208Z,40.45
2019-02-18T16:44:19.133Z,40.65
2019-02-18T16:46:50.658Z,41.06
2019-02-18T16:49:23.665Z,41.06
2019-02-18T16:51:56.044Z,41.25
2019-02-18T16:54:26.455Z,41.43
2019-02-18T16:56:56.738Z,41.43
2019-02-18T16:59:29.431Z,42.46
2019-02-18T17:02:00.269Z,42.46
2019-02-18T17:04:30.538Z,42.77
2019-02-18T17:07:00.347Z,43.23
2019-02-18T17:09:33.694Z,43.23
2019-02-18T17:12:03.239Z,43.34
2019-02-18T17:14:35.839Z,43.63
2019-02-18T17:17:07.131Z,43.63
2019-02-18T17:19:36.940Z,43.63
2019-02-18T17:22:06.640Z,44.43
2019-02-18T17:24:40.002Z,44.45
2019-02-18T17:27:10.605Z,44.80
2019-02-18T17:29:40.427Z,44.80
2019-02-18T17:32:10.208Z,45.04
2019-02-18T17:34:46.429Z,45.33
2019-02-18T17:37:17.294Z,45.97
2019-02-18T17:39:53.197Z,45.73
2019-02-18T17:42:23.007Z,45.94
2019-02-18T17:44:58.982Z,46.30
2019-02-18T17:47:33.637Z,46.85
2019-02-18T17:50:03.344Z,46.79
2019-02-18T17:52:34.917Z,46.79
2019-02-18T17:55:05.129Z,47.70
2019-02-18T17:57:40.136Z,47.70
2019-02-18T18:00:12.512Z,48.15
2019-02-18T18:02:42.680Z,48.05
2019-02-18T18:05:14.531Z,48.05
2019-02-18T18:07:44.304Z,48.29
2019-02-18T18:10:14.935Z,48.29
2019-02-18T18:12:44.778Z,48.84
2019-02-18T18:15:16.159Z,48.84
2019-02-18T18:17:46.714Z,48.91
2019-02-18T18:20:16.356Z,49.75
2019-02-18T18:22:47.130Z,49.75
2019-02-18T18:25:17.016Z,49.66
2019-02-18T18:27:46.696Z,49.66
2019-02-18T18:30:17.126Z,50.04
2019-02-18T18:32:46.811Z,50.30
2019-02-18T18:35:16.687Z,50.42
2019-02-18T18:37:46.408Z,50.74
2019-02-18T18:40:19.241Z,50.78
2019-02-18T18:42:48.944Z,50.78
2019-02-18T18:45:18.494Z,51.01
2019-02-18T18:47:48.239Z,51.19
2019-02-18T18:50:18.667Z,51.21
2019-02-18T18:52:56.030Z,51.21
2019-02-18T18:55:32.444Z,51.39
2019-02-18T18:58:05.401Z,51.61
2019-02-18T19:00:35.184Z,51.61
2019-02-18T19:03:09.317Z,51.84
2019-02-18T19:05:39.466Z,52.07
2019-02-18T19:08:09.013Z,52.21
2019-02-18T19:10:40.584Z,52.70
2019-02-18T19:13:10.928Z,52.70
2019-02-18T19:15:49.257Z,52.82
2019-02-18T19:18:12.069Z,52.65
2019-02-18T19:20:42.080Z,52.96
2019-02-18T19:23:13.243Z,53.37
2019-02-18T19:25:42.872Z,53.37
2019-02-18T19:28:16.217Z,53.58
2019-02-18T19:30:45.959Z,53.81
2019-02-18T19:33:15.748Z,54.04
2019-02-18T19:35:45.992Z,54.59
2019-02-18T19:38:23.148Z,54.50
2019-02-18T19:40:53.447Z,54.50
2019-02-18T19:43:24.018Z,54.78
2019-02-18T19:46:02.028Z,55.15
2019-02-18T19:48:35.261Z,55.43
2019-02-18T19:51:06.146Z,55.43
2019-02-18T19:53:38.231Z,55.28
2019-02-18T19:56:09.715Z,55.55
2019-02-18T19:58:41.963Z,55.51
2019-02-18T20:01:11.700Z,56.16
2019-02-18T20:03:46.653Z,56.16
2019-02-18T20:06:21.852Z,56.39
2019-02-18T20:08:51.557Z,56.39
2019-02-18T20:11:24.444Z,56.60
2019-02-18T20:13:58.888Z,56.60
2019-02-18T20:16:25.886Z,57.26
2019-02-18T20:18:55.864Z,57.26
2019-02-18T20:21:27.409Z,57.11
2019-02-18T20:23:57.339Z,57.11
2019-02-18T20:26:27.035Z,57.50
2019-02-18T20:28:56.913Z,57.50
2019-02-18T20:31:26.521Z,57.91
2019-02-18T20:33:59.153Z,57.91
2019-02-18T20:36:31.646Z,58.11
2019-02-18T20:39:04.032Z,58.00
2019-02-18T20:41:39.400Z,58.51
2019-02-18T20:44:08.984Z,58.51
2019-02-18T20:46:44.297Z,58.42
2019-02-18T20:49:16.302Z,58.90
2019-02-18T20:51:49.414Z,58.90
2019-02-18T20:54:21.343Z,58.91
2019-02-18T20:56:57.635Z,59.05
2019-02-18T20:59:32.505Z,59.65
2019-02-18T21:02:02.499Z,59.75
2019-02-18T21:04:33.246Z,60.13
2019-02-18T21:07:04.423Z,60.13
2019-02-18T21:09:34.818Z,59.99
2019-02-18T21:12:04.876Z,60.19
2019-02-18T21:14:35.152Z,60.47
2019-02-18T21:17:05.742Z,60.47
2019-02-18T21:19:36.092Z,60.48
2019-02-18T21:22:07.746Z,60.38
2019-02-18T21:24:37.406Z,60.47
2019-02-18T21:27:09.118Z,60.84
2019-02-18T21:29:39.393Z,60.85
2019-02-18T21:32:09.750Z,60.85
2019-02-18T21:34:39.301Z,61.08
2019-02-18T21:37:08.968Z,61.08
2019-02-18T21:39:38.738Z,61.16
2019-02-18T21:42:08.757Z,61.16
2019-02-18T21:44:38.799Z,61.32
2019-02-18T21:47:09.027Z,61.24
2019-02-18T21:49:39.056Z,61.24
2019-02-18T21:52:13.742Z,61.55
2019-02-18T21:54:48.554Z,61.55
2019-02-18T21:57:19.189Z,61.88
2019-02-18T21:59:49.358Z,62.36
2019-02-18T22:02:19.266Z,62.48
2019-02-18T22:04:49.602Z,62.48
2019-02-18T22:07:19.661Z,62.94
2019-02-18T22:09:50.019Z,62.94
2019-02-18T22:12:20.131Z,62.94
2019-02-18T22:14:49.819Z,62.97
2019-02-18T22:17:19.804Z,63.17
2019-02-18T22:19:51.379Z,63.14
2019-02-18T22:22:21.495Z,63.29
2019-02-18T22:24:51.552Z,63.29
2019-02-18T22:27:21.460Z,63.01
2019-02-18T22:29:51.244Z,63.25
2019-02-18T22:32:24.384Z,63.19
2019-02-18T22:34:54.154Z,63.08
2019-02-18T22:37:23.804Z,63.32
2019-02-18T22:39:53.900Z,63.32
2019-02-18T22:42:23.525Z,63.37
2019-02-18T22:44:54.766Z,63.18
2019-02-18T22:47:26.915Z,63.18
2019-02-18T22:49:57.190Z,63.27
2019-02-18T22:52:27.067Z,63.30
2019-02-18T22:54:57.275Z,63.04
2019-02-18T22:57:27.424Z,63.04
2019-02-18T22:59:57.670Z,63.46
2019-02-18T23:02:27.490Z,63.64
2019-02-18T23:04:57.388Z,63.29
2019-02-18T23:07:27.113Z,63.70
2019-02-18T23:09:57.228Z,63.70
2019-02-18T23:12:30.391Z,63.89
2019-02-18T23:15:00.639Z,63.89
2019-02-18T23:17:30.414Z,64.01
2019-02-18T23:20:00.286Z,64.01
2019-02-18T23:22:30.372Z,64.29
2019-02-18T23:25:00.832Z,64.14
2019-02-18T23:27:31.041Z,64.27
2019-02-18T23:30:00.943Z,64.40
2019-02-18T23:32:30.918Z,64.41
2019-02-18T23:35:00.964Z,64.28
2019-02-18T23:37:31.371Z,64.28
2019-02-18T23:40:01.973Z,64.55
2019-02-18T23:42:31.880Z,64.55
2019-02-18T23:45:05.170Z,64.72
2019-02-18T23:47:37.248Z,64.34
2019-02-18T23:50:06.998Z,64.34
2019-02-18T23:52:36.675Z,64.66
2019-02-18T23:55:06.562Z,64.66
2019-02-18T23:57:36.374Z,64.67
